TAF SKBQ
SKBQ 270430Z 2706/2806 VRB03KT 9999 SCT015 TEMPO 2709/2713 4000 BR BKN010 TEMPO 2718/2722 TSRA SCT015CB TX29/2718Z TN23/2709Z=
METAR SKBQ
SKBQ 252300Z 02007KT 350V060 9999 SCT012 SCT080 27/24 Q1009 NOSIG RMK A2980=
WC SKBQ
WS SKBQ
WV SKBQ